createdAt,value
2018-12-03T00:00:23.914Z,5.87
2018-12-03T00:02:54.361Z,4.90
2018-12-03T00:05:22.467Z,5.67
2018-12-03T00:07:50.538Z,8.27
2018-12-03T00:10:18.621Z,8.47
2018-12-03T00:12:46.693Z,7.13
2018-12-03T00:15:14.761Z,5.23
2018-12-03T00:17:42.833Z,5.07
2018-12-03T00:20:10.941Z,6.23
2018-12-03T00:22:39.032Z,7.20
2018-12-03T00:25:07.781Z,11.13
2018-12-03T00:27:35.985Z,9.70
2018-12-03T00:30:46.822Z,8.37
2018-12-03T00:33:27.457Z,4.77
2018-12-03T00:36:08.535Z,8.47
2018-12-03T00:38:49.846Z,9.23
2018-12-03T00:41:29.273Z,7.60
2018-12-03T00:44:17.622Z,7.47
2018-12-03T00:46:58.849Z,9.93
2018-12-03T00:49:40.070Z,8.47
2018-12-03T00:52:19.480Z,4.67
2018-12-03T00:55:08.263Z,6.47
2018-12-03T00:57:47.882Z,6.70
2018-12-03T01:00:36.215Z,9.57
2018-12-03T01:03:17.022Z,6.90
2018-12-03T01:05:58.458Z,9.30
2018-12-03T01:08:39.806Z,7.83
2018-12-03T01:11:21.139Z,9.00
2018-12-03T01:14:01.893Z,10.43
2018-12-03T01:16:41.490Z,12.63
2018-12-03T01:19:22.470Z,9.20
2018-12-03T01:22:03.054Z,9.27
2018-12-03T01:24:43.554Z,11.33
2018-12-03T01:27:24.954Z,10.30
2018-12-03T01:30:05.786Z,12.73
2018-12-03T01:32:47.034Z,11.20
2018-12-03T01:35:27.628Z,12.67
2018-12-03T01:38:08.438Z,13.47
2018-12-03T01:40:49.653Z,11.60
2018-12-03T01:43:30.378Z,12.00
2018-12-03T01:46:11.774Z,11.87
2018-12-03T01:48:53.155Z,9.43
2018-12-03T01:51:34.774Z,10.67
2018-12-03T01:54:15.939Z,7.83
2018-12-03T01:56:57.342Z,9.97
2018-12-03T01:59:37.940Z,6.00
2018-12-03T02:02:18.911Z,5.63
2018-12-03T02:05:00.250Z,9.53
2018-12-03T02:07:41.022Z,15.30
2018-12-03T02:10:22.374Z,9.27
2018-12-03T02:13:03.886Z,8.60
2018-12-03T02:15:44.407Z,10.93
2018-12-03T02:18:25.105Z,10.83
2018-12-03T02:21:05.679Z,10.73
2018-12-03T02:23:47.250Z,8.87
2018-12-03T02:26:28.610Z,10.43
2018-12-03T02:29:09.730Z,7.10
2018-12-03T02:31:51.166Z,10.67
2018-12-03T02:34:31.930Z,9.70
2018-12-03T02:37:13.326Z,6.33
2018-12-03T02:39:53.890Z,10.37
2018-12-03T02:42:35.197Z,6.33
2018-12-03T02:45:15.766Z,8.90
2018-12-03T02:47:56.834Z,9.13
2018-12-03T02:50:38.060Z,7.37
2018-12-03T02:53:17.485Z,10.23
2018-12-03T02:55:58.642Z,12.07
2018-12-03T02:58:39.263Z,6.63
2018-12-03T03:01:20.600Z,8.63
2018-12-03T03:04:01.568Z,10.63
2018-12-03T03:06:42.982Z,10.80
2018-12-03T03:09:24.160Z,14.77
2018-12-03T03:12:04.686Z,9.90
2018-12-03T03:14:46.045Z,9.63
2018-12-03T03:17:27.218Z,8.60
2018-12-03T03:20:07.677Z,9.77
2018-12-03T03:22:49.244Z,9.90
2018-12-03T03:25:30.539Z,10.77
2018-12-03T03:28:11.229Z,14.17
2018-12-03T03:30:51.920Z,16.67
2018-12-03T03:33:33.453Z,13.23
2018-12-03T03:36:14.626Z,14.23
2018-12-03T03:38:55.433Z,14.33
2018-12-03T03:41:36.010Z,7.93
2018-12-03T03:44:17.334Z,11.53
2018-12-03T03:46:57.870Z,9.63
2018-12-03T03:49:39.307Z,17.50
2018-12-03T03:52:20.430Z,12.10
2018-12-03T03:55:02.076Z,13.27
2018-12-03T03:57:42.885Z,14.90
2018-12-03T04:00:24.007Z,11.87
2018-12-03T04:03:04.935Z,12.33
2018-12-03T04:05:46.547Z,13.93
2018-12-03T04:08:27.821Z,15.37
2018-12-03T04:11:07.294Z,12.43
2018-12-03T04:13:55.647Z,13.77
2018-12-03T04:16:43.992Z,12.50
2018-12-03T04:19:25.306Z,12.57
2018-12-03T04:22:06.632Z,18.57
2018-12-03T04:24:47.113Z,15.43
2018-12-03T04:27:28.322Z,16.27
2018-12-03T04:30:09.206Z,14.43
2018-12-03T04:32:50.398Z,12.07
2018-12-03T04:35:29.867Z,14.17
2018-12-03T04:38:10.993Z,13.53
2018-12-03T04:40:52.274Z,6.60
2018-12-03T04:43:33.132Z,16.37
2018-12-03T04:46:13.729Z,9.50
2018-12-03T04:48:54.993Z,9.60
2018-12-03T04:51:35.839Z,10.90
2018-12-03T04:54:16.582Z,9.20
2018-12-03T04:56:57.103Z,7.63
2018-12-03T04:59:36.494Z,8.40
2018-12-03T05:02:24.867Z,9.60
2018-12-03T05:05:06.064Z,11.93
2018-12-03T05:07:47.148Z,9.70
2018-12-03T05:10:28.223Z,7.27
2018-12-03T05:13:09.438Z,11.77
2018-12-03T05:15:49.962Z,9.67
2018-12-03T05:18:31.405Z,14.00
2018-12-03T05:21:12.692Z,15.13
2018-12-03T05:23:53.971Z,14.90
2018-12-03T05:26:35.502Z,15.83
2018-12-03T05:29:16.351Z,14.27
2018-12-03T05:31:55.773Z,19.00
2018-12-03T05:34:44.110Z,17.67
2018-12-03T05:37:25.227Z,16.53
2018-12-03T05:40:06.258Z,21.30
2018-12-03T05:42:46.958Z,17.90
2018-12-03T05:45:26.373Z,16.70
2018-12-03T05:48:07.039Z,20.53
2018-12-03T05:50:47.810Z,26.13
2018-12-03T05:53:27.254Z,27.07
2018-12-03T05:56:15.598Z,24.17
2018-12-03T05:58:55.275Z,27.50
2018-12-03T06:01:43.622Z,21.73
2018-12-03T06:04:25.232Z,18.73
2018-12-03T06:07:06.313Z,17.70
2018-12-03T06:09:47.539Z,21.77
2018-12-03T06:12:28.202Z,19.70
2018-12-03T06:15:09.645Z,24.40
2018-12-03T06:17:50.798Z,23.70
2018-12-03T06:20:32.142Z,24.63
2018-12-03T06:23:13.326Z,19.57
2018-12-03T06:25:53.008Z,25.10
2018-12-03T06:28:41.357Z,27.00
2018-12-03T06:31:22.146Z,26.93
2018-12-03T06:34:02.834Z,25.00
2018-12-03T06:36:44.368Z,27.97
2018-12-03T06:39:25.726Z,20.17
2018-12-03T06:42:06.490Z,26.30
2018-12-03T06:44:45.918Z,27.60
2018-12-03T06:47:26.386Z,28.80
2018-12-03T06:50:07.664Z,28.43
2018-12-03T06:52:49.006Z,22.03
2018-12-03T06:55:28.382Z,24.47
2018-12-03T06:58:09.142Z,34.97
2018-12-03T07:00:50.026Z,30.53
2018-12-03T07:03:31.130Z,22.93
2018-12-03T07:06:11.803Z,32.33
2018-12-03T07:08:53.495Z,26.27
2018-12-03T07:11:34.678Z,32.33
2018-12-03T07:14:15.430Z,24.83
2018-12-03T07:16:56.778Z,29.50
2018-12-03T07:19:38.165Z,25.87
2018-12-03T07:22:19.594Z,26.37
2018-12-03T07:25:00.486Z,22.60
2018-12-03T07:27:41.619Z,21.40
2018-12-03T07:30:24.082Z,21.40
2018-12-03T07:33:04.722Z,28.20
2018-12-03T07:35:46.373Z,23.70
2018-12-03T07:38:27.682Z,31.10
2018-12-03T07:41:09.069Z,28.97
2018-12-03T07:43:50.198Z,27.80
2018-12-03T07:46:30.965Z,33.30
2018-12-03T07:49:12.350Z,33.10
2018-12-03T07:51:52.896Z,25.70
2018-12-03T07:54:34.370Z,33.07
2018-12-03T07:57:15.091Z,26.17
2018-12-03T07:59:55.594Z,24.07
2018-12-03T08:02:36.602Z,25.30
2018-12-03T08:05:17.140Z,31.63
2018-12-03T08:07:57.923Z,33.00
2018-12-03T08:10:37.574Z,32.40
2018-12-03T08:13:18.711Z,28.87
2018-12-03T08:15:58.246Z,35.33
2018-12-03T08:18:39.010Z,39.63
2018-12-03T08:21:19.522Z,30.13
2018-12-03T08:24:00.823Z,27.13
2018-12-03T08:26:42.160Z,31.03
2018-12-03T08:29:23.450Z,34.43
2018-12-03T08:32:04.302Z,32.77
2018-12-03T08:34:45.010Z,36.37
2018-12-03T08:37:25.986Z,35.80
2018-12-03T08:40:07.820Z,39.27
2018-12-03T08:42:48.547Z,35.37
2018-12-03T08:45:29.502Z,37.20
2018-12-03T08:48:10.812Z,34.37
2018-12-03T08:50:51.618Z,40.40
2018-12-03T08:53:32.273Z,35.83
2018-12-03T08:56:11.694Z,34.87
2018-12-03T08:59:00.060Z,38.10
2018-12-03T09:01:41.342Z,29.43
2018-12-03T09:04:22.516Z,39.27
2018-12-03T09:07:03.590Z,38.10
2018-12-03T09:09:44.150Z,34.80
2018-12-03T09:12:25.150Z,26.63
2018-12-03T09:15:05.693Z,38.50
2018-12-03T09:17:46.567Z,34.23
2018-12-03T09:20:27.202Z,38.60
2018-12-03T09:23:08.298Z,34.37
2018-12-03T09:25:48.901Z,25.77
2018-12-03T09:28:30.342Z,28.93
2018-12-03T09:31:13.406Z,32.53
2018-12-03T09:33:54.884Z,32.30
2018-12-03T09:36:35.747Z,37.00
2018-12-03T09:39:16.314Z,33.83
2018-12-03T09:41:57.538Z,37.53
2018-12-03T09:44:38.374Z,33.57
2018-12-03T09:47:19.642Z,35.27
2018-12-03T09:50:00.698Z,32.40
2018-12-03T09:52:41.982Z,27.47
2018-12-03T09:55:30.987Z,34.03
2018-12-03T10:01:27.386Z,32.97
2018-12-03T10:04:07.934Z,33.47
2018-12-03T10:06:47.333Z,18.67
2018-12-03T10:09:36.198Z,33.07
2018-12-03T10:12:18.318Z,31.50
2018-12-03T10:14:59.218Z,27.80
2018-12-03T10:17:39.838Z,30.20
2018-12-03T10:20:20.409Z,31.30
2018-12-03T10:23:01.822Z,28.70
2018-12-03T10:25:43.266Z,33.33
2018-12-03T10:28:23.838Z,25.63
2018-12-03T10:31:05.231Z,38.77
2018-12-03T10:33:46.051Z,30.77
2018-12-03T10:36:26.543Z,27.53
2018-12-03T10:39:07.944Z,24.90
2018-12-03T10:41:49.054Z,24.80
2018-12-03T10:44:30.620Z,30.57
2018-12-03T10:47:11.939Z,35.67
2018-12-03T10:49:52.682Z,34.30
2018-12-03T10:52:33.350Z,34.07
2018-12-03T10:55:14.547Z,32.17
2018-12-03T10:57:55.080Z,29.10
2018-12-03T11:00:54.427Z,31.10
2018-12-03T11:03:56.611Z,29.70
2018-12-03T11:06:37.702Z,33.13
2018-12-03T11:09:17.272Z,28.57
2018-12-03T11:11:58.890Z,35.00
2018-12-03T11:14:40.241Z,30.80
2018-12-03T11:17:21.640Z,34.17
2018-12-03T11:20:01.068Z,39.07
2018-12-03T11:22:41.654Z,30.93
2018-12-03T11:25:24.950Z,29.03
2018-12-03T11:28:05.527Z,29.27
2018-12-03T11:30:46.888Z,28.77
2018-12-03T11:33:28.066Z,29.70
2018-12-03T11:36:09.527Z,30.83
2018-12-03T11:38:50.407Z,29.77
2018-12-03T11:41:29.946Z,26.37
2018-12-03T11:44:10.567Z,22.83
2018-12-03T11:46:50.030Z,34.53
2018-12-03T11:49:30.850Z,26.50
2018-12-03T11:52:10.242Z,23.33
2018-12-03T11:54:51.555Z,30.07
2018-12-03T11:57:32.973Z,28.83
2018-12-03T12:00:15.502Z,23.00
2018-12-03T12:02:56.885Z,24.87
2018-12-03T12:05:36.230Z,31.30
2018-12-03T12:08:24.578Z,28.27
2018-12-03T12:11:05.624Z,26.20
2018-12-03T12:13:46.942Z,26.90
2018-12-03T12:16:27.498Z,30.13
2018-12-03T12:19:08.868Z,25.27
2018-12-03T12:21:49.602Z,26.23
2018-12-03T12:24:31.010Z,19.63
2018-12-03T12:27:12.490Z,19.43
2018-12-03T12:29:53.762Z,31.47
2018-12-03T12:32:35.208Z,22.67
2018-12-03T12:35:16.340Z,29.05
2018-12-03T12:37:57.622Z,24.63
2018-12-03T12:40:38.374Z,19.77
2018-12-03T12:43:19.765Z,22.17
2018-12-03T12:46:00.338Z,24.37
2018-12-03T12:48:41.722Z,26.00
2018-12-03T12:51:22.346Z,25.00
2018-12-03T12:54:03.834Z,24.87
2018-12-03T12:56:45.374Z,19.10
2018-12-03T12:59:26.954Z,26.47
2018-12-03T13:02:08.118Z,25.70
2018-12-03T13:04:47.538Z,20.27
2018-12-03T13:07:35.906Z,25.00
2018-12-03T13:10:17.339Z,20.53
2018-12-03T13:12:58.086Z,32.20
2018-12-03T13:15:39.422Z,28.90
2018-12-03T13:18:20.494Z,19.27
2018-12-03T13:21:01.799Z,19.80
2018-12-03T13:23:42.450Z,17.43
2018-12-03T13:26:23.077Z,22.63
2018-12-03T13:29:02.491Z,24.77
2018-12-03T13:31:43.274Z,21.73
2018-12-03T13:34:24.712Z,24.60
2018-12-03T13:37:07.840Z,23.53
2018-12-03T13:39:48.538Z,21.47
2018-12-03T13:42:29.902Z,23.73
2018-12-03T13:45:10.663Z,22.40
2018-12-03T13:47:51.983Z,15.57
2018-12-03T13:50:32.729Z,21.63
2018-12-03T13:53:13.787Z,19.03
2018-12-03T13:55:54.292Z,17.57
2018-12-03T13:58:34.826Z,19.07
2018-12-03T14:01:15.895Z,15.20
2018-12-03T14:04:16.351Z,17.00
2018-12-03T14:06:56.951Z,22.20
2018-12-03T14:09:37.447Z,15.00
2018-12-03T14:12:18.959Z,16.97
2018-12-03T14:15:00.146Z,12.17
2018-12-03T14:17:41.426Z,11.73
2018-12-03T14:20:22.675Z,15.80
2018-12-03T14:23:03.850Z,14.63
2018-12-03T14:25:43.548Z,15.63
2018-12-03T14:28:31.894Z,15.83
2018-12-03T14:31:12.662Z,15.70
2018-12-03T14:33:53.251Z,14.93
2018-12-03T14:36:34.971Z,16.20
2018-12-03T14:39:16.195Z,14.90
2018-12-03T14:41:56.766Z,19.67
2018-12-03T14:44:37.475Z,14.33
2018-12-03T14:47:17.169Z,10.17
2018-12-03T14:50:06.938Z,15.37
2018-12-03T14:52:48.358Z,12.40
2018-12-03T14:55:29.592Z,15.23
2018-12-03T14:58:10.517Z,12.27
2018-12-03T15:00:51.110Z,12.43
2018-12-03T15:03:31.710Z,14.30
2018-12-03T15:06:12.854Z,17.40
2018-12-03T15:08:53.502Z,18.90
2018-12-03T15:11:34.033Z,13.17
2018-12-03T15:14:14.833Z,17.87
2018-12-03T15:16:56.164Z,15.70
2018-12-03T15:19:37.102Z,18.47
2018-12-03T15:22:18.229Z,17.57
2018-12-03T15:24:59.775Z,20.40
2018-12-03T15:27:40.874Z,15.17
2018-12-03T15:30:21.415Z,22.43
2018-12-03T15:33:01.983Z,16.70
2018-12-03T15:35:42.858Z,15.63
2018-12-03T15:38:24.114Z,18.93
2018-12-03T15:41:05.520Z,19.00
2018-12-03T15:43:46.994Z,24.10
2018-12-03T15:46:27.978Z,17.60
2018-12-03T15:49:08.514Z,13.37
2018-12-03T15:51:49.249Z,18.80
2018-12-03T15:54:30.583Z,18.60
2018-12-03T15:57:11.510Z,18.57
2018-12-03T15:59:52.790Z,14.83
2018-12-03T16:02:34.358Z,17.10
2018-12-03T16:05:15.746Z,15.37
2018-12-03T16:07:57.196Z,16.70
2018-12-03T16:10:38.548Z,10.13
2018-12-03T16:13:19.706Z,14.07
2018-12-03T16:16:01.102Z,22.33
2018-12-03T16:18:41.825Z,13.73
2018-12-03T16:21:22.846Z,21.27
2018-12-03T16:24:04.484Z,19.10
2018-12-03T16:26:45.258Z,18.13
2018-12-03T16:29:26.670Z,13.83
2018-12-03T16:32:08.122Z,13.83
2018-12-03T16:34:49.698Z,20.83
2018-12-03T16:37:30.994Z,21.50
2018-12-03T16:40:12.158Z,20.60
2018-12-03T16:42:53.524Z,14.93
2018-12-03T16:45:33.168Z,19.07
2018-12-03T16:48:21.527Z,21.40
2018-12-03T16:51:02.527Z,18.40
2018-12-03T16:53:43.630Z,21.27
2018-12-03T16:56:24.662Z,26.73
2018-12-03T16:59:05.809Z,22.20
2018-12-03T17:01:47.321Z,22.70
2018-12-03T17:04:28.165Z,22.93
2018-12-03T17:07:14.044Z,24.93
2018-12-03T17:09:52.957Z,22.67
2018-12-03T17:12:34.631Z,24.93
2018-12-03T17:15:15.770Z,27.20
2018-12-03T17:17:56.257Z,26.27
2018-12-03T17:20:37.122Z,29.13
2018-12-03T17:23:18.739Z,27.93
2018-12-03T17:25:59.642Z,30.03
2018-12-03T17:28:40.607Z,21.07
2018-12-03T17:31:20.115Z,23.70
2018-12-03T17:34:08.566Z,28.27
2018-12-03T17:36:50.020Z,25.17
2018-12-03T17:39:31.566Z,23.37
2018-12-03T17:42:12.723Z,20.77
2018-12-03T17:44:54.388Z,25.87
2018-12-03T17:47:35.489Z,25.80
2018-12-03T17:50:16.972Z,32.23
2018-12-03T17:52:58.224Z,23.30
2018-12-03T17:55:39.746Z,34.20
2018-12-03T17:58:20.682Z,31.33
2018-12-03T18:01:00.075Z,42.87
2018-12-03T18:03:48.530Z,29.93
2018-12-03T18:06:29.850Z,38.02
2018-12-03T18:09:11.206Z,32.07
2018-12-03T18:11:51.787Z,31.57
2018-12-03T18:14:33.106Z,27.63
2018-12-03T18:17:14.230Z,28.47
2018-12-03T18:19:55.040Z,29.20
2018-12-03T18:22:36.527Z,31.03
2018-12-03T18:25:17.522Z,27.50
2018-12-03T18:27:58.238Z,23.13
2018-12-03T18:30:39.383Z,30.10
2018-12-03T18:33:20.450Z,26.40
2018-12-03T18:36:01.840Z,23.10
2018-12-03T18:38:43.093Z,24.67
2018-12-03T18:41:23.866Z,21.30
2018-12-03T18:44:06.422Z,23.30
2018-12-03T18:46:47.740Z,22.17
2018-12-03T18:49:28.982Z,24.37
2018-12-03T18:52:17.676Z,21.83
2018-12-03T18:54:58.395Z,21.83
2018-12-03T18:57:38.923Z,25.80
2018-12-03T19:00:19.693Z,18.67
2018-12-03T19:03:00.638Z,24.10
2018-12-03T19:05:42.454Z,26.17
2018-12-03T19:08:23.727Z,24.87
2018-12-03T19:11:03.176Z,22.70
2018-12-03T19:13:51.614Z,21.17
2018-12-03T19:16:40.066Z,18.87
2018-12-03T19:19:20.732Z,20.10
2018-12-03T19:22:00.279Z,21.87
2018-12-03T19:24:48.709Z,24.73
2018-12-03T19:27:29.710Z,26.07
2018-12-03T19:30:10.611Z,14.77
2018-12-03T19:32:52.256Z,20.30
2018-12-03T19:35:33.366Z,24.73
2018-12-03T19:38:13.922Z,26.10
2018-12-03T19:40:54.815Z,19.47
2018-12-03T19:43:36.256Z,22.80
2018-12-03T19:46:17.534Z,22.43
2018-12-03T19:48:57.191Z,16.73
2018-12-03T19:51:45.586Z,11.20
2018-12-03T19:54:26.822Z,11.07
2018-12-03T19:57:07.507Z,13.47
2018-12-03T19:59:48.645Z,9.53
2018-12-03T20:02:29.755Z,8.10
2018-12-03T20:05:29.214Z,7.93
2018-12-03T20:08:09.868Z,6.43
2018-12-03T20:10:50.435Z,5.43
2018-12-03T20:13:29.906Z,8.40
2018-12-03T20:16:10.251Z,6.23
2018-12-03T20:18:58.610Z,4.20
2018-12-03T20:21:47.542Z,5.10
2018-12-03T20:24:28.163Z,6.97
2018-12-03T20:27:09.908Z,4.93
2018-12-03T20:29:51.147Z,5.03
2018-12-03T20:32:41.056Z,6.20
2018-12-03T20:35:48.454Z,5.60
2018-12-03T20:38:29.859Z,4.97
2018-12-03T20:41:11.234Z,4.33
2018-12-03T20:43:52.762Z,3.07
2018-12-03T20:46:33.739Z,6.17
2018-12-03T20:49:15.255Z,4.37
2018-12-03T20:51:56.415Z,7.13
2018-12-03T20:54:37.062Z,8.97
2018-12-03T20:57:17.766Z,5.83
2018-12-03T20:59:59.165Z,12.13
2018-12-03T21:02:40.438Z,6.97
2018-12-03T21:05:21.568Z,7.17
2018-12-03T21:08:02.824Z,6.53
2018-12-03T21:10:43.891Z,5.90
2018-12-03T21:13:24.691Z,5.43
2018-12-03T21:16:06.231Z,6.07
2018-12-03T21:18:47.726Z,6.47
2018-12-03T21:21:28.638Z,7.67
2018-12-03T21:24:09.700Z,4.53
2018-12-03T21:26:51.000Z,5.03
2018-12-03T21:29:32.038Z,4.60
2018-12-03T21:32:12.904Z,2.87
2018-12-03T21:34:54.410Z,1.70
2018-12-03T21:37:35.708Z,2.00
2018-12-03T21:40:16.286Z,1.57
2018-12-03T21:42:57.683Z,1.77
2018-12-03T21:45:38.931Z,2.23
2018-12-03T21:48:20.358Z,4.67
2018-12-03T21:51:01.297Z,2.87
2018-12-03T21:53:40.747Z,3.13
2018-12-03T21:56:29.443Z,4.40
2018-12-03T21:59:10.974Z,4.97
2018-12-03T22:01:51.964Z,1.50
2018-12-03T22:04:33.495Z,2.17
2018-12-03T22:07:14.517Z,2.97
2018-12-03T22:09:55.315Z,3.27
2018-12-03T22:12:36.610Z,1.47
2018-12-03T22:15:18.082Z,3.03
2018-12-03T22:17:59.118Z,5.87
2018-12-03T22:20:39.653Z,8.33
2018-12-03T22:23:20.391Z,4.00
2018-12-03T22:26:01.519Z,5.03
2018-12-03T22:28:42.347Z,2.97
2018-12-03T22:31:23.219Z,5.20
2018-12-03T22:34:04.608Z,5.17
2018-12-03T22:36:44.215Z,5.87
2018-12-03T22:39:32.568Z,3.70
2018-12-03T22:42:13.273Z,3.87
2018-12-03T22:44:52.717Z,4.83
2018-12-03T22:47:33.338Z,7.17
2018-12-03T22:50:14.493Z,5.03
2018-12-03T22:52:55.454Z,7.23
2018-12-03T22:55:36.071Z,7.50
2018-12-03T22:58:16.926Z,8.70
2018-12-03T23:01:06.162Z,3.23
2018-12-03T23:03:47.502Z,14.43
2018-12-03T23:06:28.901Z,6.57
2018-12-03T23:09:08.869Z,5.10
2018-12-03T23:11:57.245Z,1.83
2018-12-03T23:14:38.231Z,5.47
2018-12-03T23:17:19.442Z,8.00
2018-12-03T23:19:59.963Z,6.53
2018-12-03T23:22:41.342Z,8.70
2018-12-03T23:25:22.182Z,3.80
2018-12-03T23:28:03.450Z,4.10
2018-12-03T23:30:44.322Z,4.33
2018-12-03T23:33:25.710Z,5.83
2018-12-03T23:36:06.318Z,4.87
2018-12-03T23:38:47.676Z,5.87
2018-12-03T23:41:29.158Z,5.33
2018-12-03T23:44:09.708Z,3.37
2018-12-03T23:46:50.250Z,9.40
2018-12-03T23:49:31.022Z,9.37
2018-12-03T23:52:12.642Z,6.70
2018-12-03T23:54:53.803Z,8.67
2018-12-03T23:57:34.590Z,11.10
